createdAt,value
2022-12-27T00:01:14.065Z,102009.53
2022-12-27T00:03:42.376Z,102009.59
2022-12-27T00:06:11.729Z,102016.56
2022-12-27T00:08:39.524Z,102010.38
2022-12-27T00:11:11.388Z,102013.91
2022-12-27T00:13:39.102Z,102018.31
2022-12-27T00:16:09.315Z,102014.84
2022-12-27T00:18:37.779Z,102014.84
2022-12-27T00:21:07.416Z,102011.22
2022-12-27T00:23:37.686Z,102008.47
2022-12-27T00:26:10.212Z,102024.34
2022-12-27T00:28:39.536Z,102024.19
2022-12-27T00:31:07.327Z,102016.16
2022-12-27T00:33:37.576Z,102027.69
2022-12-27T00:36:07.665Z,102016.09
2022-12-27T00:38:36.397Z,102016.00
2022-12-27T00:41:04.318Z,102013.44
2022-12-27T00:43:32.489Z,102024.03
2022-12-27T00:46:02.247Z,102027.47
2022-12-27T00:48:30.612Z,102023.00
2022-12-27T00:51:00.267Z,102025.66
2022-12-27T00:53:29.116Z,102034.53
2022-12-27T00:55:57.351Z,102035.38
2022-12-27T00:58:25.722Z,102031.88
2022-12-27T01:00:54.198Z,102033.66
2022-12-27T01:03:23.389Z,102045.13
2022-12-27T01:05:51.106Z,102049.34
2022-12-27T01:08:18.807Z,102051.19
2022-12-27T01:10:46.518Z,102049.38
2022-12-27T01:13:14.335Z,102051.13
2022-12-27T01:15:43.107Z,102056.50
2022-12-27T01:18:10.854Z,102057.31
2022-12-27T01:20:40.144Z,102052.91
2022-12-27T01:23:07.965Z,102051.25
2022-12-27T01:25:35.684Z,102053.06
2022-12-27T01:28:03.416Z,102056.44
2022-12-27T01:30:31.405Z,102046.69
2022-12-27T01:33:01.169Z,102051.97
2022-12-27T01:35:29.022Z,102070.47
2022-12-27T01:37:58.193Z,102066.09
2022-12-27T01:40:26.436Z,102074.91
2022-12-27T01:42:53.267Z,102073.09
2022-12-27T01:45:22.530Z,102078.28
2022-12-27T01:47:55.567Z,102074.72
2022-12-27T01:50:28.936Z,102075.63
2022-12-27T01:53:06.347Z,102081.81
2022-12-27T01:55:40.671Z,102082.72
2022-12-27T01:58:12.597Z,102085.44
2022-12-27T02:00:43.929Z,102076.59
2022-12-27T02:03:12.935Z,102080.88
2022-12-27T02:05:42.708Z,102085.31
2022-12-27T02:08:23.730Z,102092.47
2022-12-27T02:10:52.274Z,102089.81
2022-12-27T02:13:20.877Z,102098.53
2022-12-27T02:15:48.669Z,102101.19
2022-12-27T02:18:16.988Z,102110.06
2022-12-27T02:21:12.555Z,102105.59
2022-12-27T02:24:06.919Z,102099.34
2022-12-27T02:26:54.424Z,102102.00
2022-12-27T02:29:56.980Z,102109.06
2022-12-27T02:32:30.703Z,102114.41
2022-12-27T02:35:09.418Z,102109.94
2022-12-27T02:37:42.531Z,102121.47
2022-12-27T02:40:30.014Z,102114.47
2022-12-27T02:43:16.057Z,102115.28
2022-12-27T02:46:11.233Z,102116.97
2022-12-27T02:48:56.387Z,102115.28
2022-12-27T02:51:50.613Z,102103.84
2022-12-27T02:54:37.379Z,102103.00
2022-12-27T02:57:12.416Z,102107.34
2022-12-27T03:00:25.729Z,102092.34
2022-12-27T03:03:24.003Z,102091.41
2022-12-27T03:06:41.704Z,102099.16
2022-12-27T03:09:48.278Z,102111.63
2022-12-27T03:12:42.641Z,102107.28
2022-12-27T03:15:39.288Z,102119.59
2022-12-27T03:18:14.882Z,102123.09
2022-12-27T03:21:03.524Z,102118.78
2022-12-27T03:23:49.292Z,102120.44
2022-12-27T03:26:19.758Z,102117.75
2022-12-27T03:29:07.767Z,102116.84
2022-12-27T03:31:56.852Z,102122.25
2022-12-27T03:34:35.892Z,102120.53
2022-12-27T03:37:29.399Z,102124.13
2022-12-27T03:40:04.617Z,102112.66
2022-12-27T03:42:53.793Z,102122.38
2022-12-27T03:45:42.706Z,102117.06
2022-12-27T03:48:12.300Z,102125.94
2022-12-27T03:50:47.641Z,102125.06
2022-12-27T03:53:21.488Z,102131.34
2022-12-27T03:55:49.838Z,102137.47
2022-12-27T03:58:17.761Z,102128.59
2022-12-27T04:00:45.661Z,102142.81
2022-12-27T04:03:13.362Z,102138.31
2022-12-27T04:05:42.417Z,102134.81
2022-12-27T04:08:27.845Z,102135.59
2022-12-27T04:11:13.153Z,102138.25
2022-12-27T04:13:58.499Z,102139.94
2022-12-27T04:16:43.599Z,102137.25
2022-12-27T04:19:28.959Z,102139.84
2022-12-27T04:22:15.294Z,102131.94
2022-12-27T04:25:00.456Z,102117.94
2022-12-27T04:27:45.506Z,102122.31
2022-12-27T04:30:31.246Z,102124.91
2022-12-27T04:33:16.573Z,102124.84
2022-12-27T04:35:44.248Z,102126.66
2022-12-27T04:38:13.260Z,102129.25
2022-12-27T04:40:54.866Z,102125.72
2022-12-27T04:43:40.323Z,102125.69
2022-12-27T04:46:32.532Z,102132.84
2022-12-27T04:49:17.967Z,102132.00
2022-12-27T04:52:02.913Z,102140.00
2022-12-27T04:54:49.709Z,102143.69
2022-12-27T04:57:17.347Z,102143.59
2022-12-27T05:00:02.436Z,102150.69
2022-12-27T05:02:30.276Z,102158.81
2022-12-27T05:04:58.179Z,102165.91
2022-12-27T05:07:43.822Z,102156.38
2022-12-27T05:10:30.737Z,102158.19
2022-12-27T05:13:16.050Z,102162.78
2022-12-27T05:15:43.843Z,102154.81
2022-12-27T05:18:11.533Z,102168.06
2022-12-27T05:20:39.196Z,102160.31
2022-12-27T05:23:24.295Z,102166.72
2022-12-27T05:25:53.320Z,102177.56
2022-12-27T05:28:21.034Z,102173.16
2022-12-27T05:30:48.880Z,102171.28
2022-12-27T05:33:16.595Z,102183.75
2022-12-27T05:35:44.408Z,102195.97
2022-12-27T05:38:12.211Z,102190.63
2022-12-27T05:40:39.911Z,102195.03
2022-12-27T05:43:08.999Z,102197.72
2022-12-27T05:45:36.667Z,102191.41
2022-12-27T05:48:04.725Z,102203.69
2022-12-27T05:50:32.470Z,102199.22
2022-12-27T05:53:00.132Z,102201.88
2022-12-27T05:55:27.849Z,102203.53
2022-12-27T05:57:55.638Z,102200.88
2022-12-27T06:00:24.772Z,102207.06
2022-12-27T06:02:52.602Z,102208.72
2022-12-27T06:05:20.410Z,102208.50
2022-12-27T06:07:48.111Z,102216.72
2022-12-27T06:10:15.727Z,102215.84
2022-12-27T06:12:43.466Z,102214.91
2022-12-27T06:15:12.067Z,102221.03
2022-12-27T06:17:41.115Z,102208.66
2022-12-27T06:20:09.739Z,102218.44
2022-12-27T06:22:37.423Z,102222.00
2022-12-27T06:25:07.900Z,102223.72
2022-12-27T06:27:38.596Z,102219.31
2022-12-27T06:30:07.734Z,102218.31
2022-12-27T06:32:36.151Z,102225.38
2022-12-27T06:35:06.041Z,102231.56
2022-12-27T06:37:33.790Z,102234.16
2022-12-27T06:40:01.467Z,102231.50
2022-12-27T06:42:30.822Z,102231.50
2022-12-27T06:44:58.555Z,102230.63
2022-12-27T06:47:26.243Z,102234.88
2022-12-27T06:49:54.136Z,102240.88
2022-12-27T06:52:23.814Z,102243.47
2022-12-27T06:54:51.469Z,102244.44
2022-12-27T06:57:19.171Z,102253.34
2022-12-27T06:59:52.379Z,102248.97
2022-12-27T07:02:21.773Z,102254.19
2022-12-27T07:04:49.600Z,102259.41
2022-12-27T07:07:17.270Z,102262.06
2022-12-27T07:09:46.345Z,102262.06
2022-12-27T07:12:17.389Z,102260.34
2022-12-27T07:14:45.059Z,102254.94
2022-12-27T07:17:12.763Z,102260.16
2022-12-27T07:19:40.402Z,102275.19
2022-12-27T07:22:08.142Z,102269.00
2022-12-27T07:24:35.906Z,102280.41
2022-12-27T07:27:05.266Z,102285.72
2022-12-27T07:29:33.006Z,102287.41
2022-12-27T07:32:00.710Z,102289.00
2022-12-27T07:34:28.420Z,102295.28
2022-12-27T07:36:56.312Z,102304.19
2022-12-27T07:39:24.026Z,102300.66
2022-12-27T07:41:51.689Z,102301.53
2022-12-27T07:44:20.814Z,102302.44
2022-12-27T07:46:48.666Z,102306.84
2022-12-27T07:49:18.059Z,102304.91
2022-12-27T07:51:46.053Z,102309.38
2022-12-27T07:54:13.741Z,102304.97
2022-12-27T07:56:41.513Z,102315.59
2022-12-27T07:59:12.837Z,102319.31
2022-12-27T08:02:03.674Z,102319.34
2022-12-27T08:04:33.208Z,102314.78
2022-12-27T08:07:05.292Z,102316.72
2022-12-27T08:09:36.356Z,102323.00
2022-12-27T08:12:04.079Z,102320.47
2022-12-27T08:14:31.766Z,102319.53
2022-12-27T08:17:06.711Z,102325.66
2022-12-27T08:19:34.460Z,102325.66
2022-12-27T08:22:02.187Z,102336.41
2022-12-27T08:24:29.845Z,102336.47
2022-12-27T08:26:57.525Z,102340.00
2022-12-27T08:29:25.698Z,102340.13
2022-12-27T08:31:53.644Z,102343.81
2022-12-27T08:34:22.776Z,102337.75
2022-12-27T08:36:56.195Z,102332.56
2022-12-27T08:39:24.317Z,102334.34
2022-12-27T08:41:53.762Z,102328.28
2022-12-27T08:44:21.551Z,102336.22
2022-12-27T08:46:49.208Z,102335.41
2022-12-27T08:49:16.882Z,102336.41
2022-12-27T08:51:45.941Z,102337.50
2022-12-27T08:54:13.671Z,102342.69
2022-12-27T08:56:41.312Z,102337.50
2022-12-27T08:59:09.155Z,102341.84
2022-12-27T09:01:36.959Z,102347.16
2022-12-27T09:04:05.169Z,102353.44
2022-12-27T09:06:32.937Z,102349.91
2022-12-27T09:09:02.026Z,102362.50
2022-12-27T09:11:31.835Z,102361.69
2022-12-27T09:14:00.630Z,102371.50
2022-12-27T09:16:29.572Z,102359.19
2022-12-27T09:18:58.953Z,102360.09
2022-12-27T09:21:29.869Z,102377.00
2022-12-27T09:23:57.649Z,102377.13
2022-12-27T09:26:29.042Z,102369.25
2022-12-27T09:28:57.922Z,102364.84
2022-12-27T09:31:26.555Z,102365.81
2022-12-27T09:33:54.931Z,102370.50
2022-12-27T09:36:24.908Z,102367.84
2022-12-27T09:38:54.273Z,102367.03
2022-12-27T09:42:33.748Z,102360.97
2022-12-27T09:44:24.084Z,102366.50
2022-12-27T09:46:55.896Z,102362.06
2022-12-27T09:49:34.663Z,102369.28
2022-12-27T09:52:05.982Z,102366.03
2022-12-27T09:54:39.983Z,102367.09
2022-12-27T09:57:20.432Z,102364.44
2022-12-27T09:59:52.935Z,102364.53
2022-12-27T10:02:23.029Z,102362.09
2022-12-27T10:07:50.639Z,102347.22
2022-12-27T10:10:27.230Z,102348.25
2022-12-27T10:13:11.300Z,102355.59
2022-12-27T10:15:49.907Z,102347.91
2022-12-27T10:18:29.077Z,102347.22
2022-12-27T10:21:05.799Z,102344.75
2022-12-27T10:23:37.449Z,102336.94
2022-12-27T10:26:07.531Z,102346.78
2022-12-27T10:28:40.568Z,102340.72
2022-12-27T10:31:15.417Z,102341.91
2022-12-27T10:33:43.640Z,102339.34
2022-12-27T10:36:15.854Z,102353.66
2022-12-27T10:38:43.655Z,102343.97
2022-12-27T10:41:26.053Z,102339.78
2022-12-27T10:43:55.866Z,102345.25
2022-12-27T10:46:32.421Z,102347.97
2022-12-27T10:51:52.723Z,102345.63
2022-12-27T10:54:24.473Z,102346.63
2022-12-27T10:56:52.341Z,102357.44
2022-12-27T10:59:22.749Z,102354.97
2022-12-27T11:02:16.283Z,102352.41
2022-12-27T11:04:59.933Z,102349.84
2022-12-27T11:07:31.886Z,102355.19
2022-12-27T11:10:16.687Z,102349.13
2022-12-27T11:13:00.120Z,102351.00
2022-12-27T11:15:30.239Z,102343.97
2022-12-27T11:18:01.812Z,102343.31
2022-12-27T11:20:33.084Z,102348.84
2022-12-27T11:23:03.538Z,102347.16
2022-12-27T11:25:32.606Z,102350.94
2022-12-27T11:28:03.987Z,102347.56
2022-12-27T11:30:34.728Z,102342.38
2022-12-27T11:33:06.946Z,102347.88
2022-12-27T11:35:46.307Z,102351.53
2022-12-27T11:38:23.959Z,102340.25
2022-12-27T11:41:00.928Z,102343.84
2022-12-27T11:43:34.830Z,102344.84
2022-12-27T11:46:06.701Z,102344.88
2022-12-27T11:48:40.624Z,102343.28
2022-12-27T11:51:38.535Z,102340.78
2022-12-27T11:54:29.804Z,102344.63
2022-12-27T11:57:11.466Z,102332.28
2022-12-27T11:59:54.017Z,102330.56
2022-12-27T12:02:43.107Z,102335.72
2022-12-27T12:05:44.489Z,102325.00
2022-12-27T12:08:34.713Z,102324.09
2022-12-27T12:11:14.722Z,102320.47
2022-12-27T12:14:33.155Z,102324.88
2022-12-27T12:17:22.460Z,102328.25
2022-12-27T12:20:07.294Z,102334.34
2022-12-27T12:22:46.245Z,102328.88
2022-12-27T12:25:44.571Z,102325.25
2022-12-27T12:28:59.198Z,102320.69
2022-12-27T12:32:02.729Z,102325.09
2022-12-27T12:34:38.195Z,102310.78
2022-12-27T12:37:17.729Z,102310.78
2022-12-27T12:40:08.175Z,102307.25
2022-12-27T12:42:44.340Z,102297.41
2022-12-27T12:45:44.590Z,102301.06
2022-12-27T12:48:38.214Z,102299.34
2022-12-27T12:51:31.817Z,102291.25
2022-12-27T12:54:09.012Z,102294.75
2022-12-27T12:56:59.836Z,102277.06
2022-12-27T12:59:49.993Z,102268.22
2022-12-27T13:02:38.295Z,102260.41
2022-12-27T13:05:16.440Z,102272.00
2022-12-27T13:07:57.020Z,102267.56
2022-12-27T13:11:06.458Z,102262.34
2022-12-27T13:13:46.126Z,102250.81
2022-12-27T13:16:25.262Z,102250.94
2022-12-27T13:19:06.747Z,102238.53
2022-12-27T13:21:52.397Z,102245.72
2022-12-27T13:24:29.938Z,102237.84
2022-12-27T13:27:08.032Z,102237.91
2022-12-27T13:29:51.326Z,102246.09
2022-12-27T13:32:36.493Z,102239.06
2022-12-27T13:35:20.800Z,102227.72
2022-12-27T13:37:57.125Z,102227.84
2022-12-27T13:40:44.374Z,102214.63
2022-12-27T13:43:27.957Z,102216.44
2022-12-27T13:46:13.396Z,102217.47
2022-12-27T13:49:03.573Z,102216.66
2022-12-27T13:51:44.908Z,102212.41
2022-12-27T13:54:39.503Z,102213.41
2022-12-27T13:57:18.537Z,102210.75
2022-12-27T14:00:05.130Z,102211.56
2022-12-27T14:03:06.176Z,102215.84
2022-12-27T14:06:17.402Z,102198.03
2022-12-27T14:09:19.804Z,102191.88
2022-12-27T14:11:58.284Z,102177.56
2022-12-27T14:14:28.654Z,102181.22
2022-12-27T14:17:21.380Z,102182.13
2022-12-27T14:20:12.190Z,102179.41
2022-12-27T14:23:12.452Z,102175.88
2022-12-27T14:26:13.405Z,102170.50
2022-12-27T14:29:10.176Z,102166.84
2022-12-27T14:32:11.875Z,102162.41
2022-12-27T14:35:05.493Z,102159.72
2022-12-27T14:38:02.195Z,102162.25
2022-12-27T14:40:48.709Z,102161.31
2022-12-27T14:43:50.972Z,102160.47
2022-12-27T14:46:54.410Z,102162.13
2022-12-27T14:49:57.037Z,102147.97
2022-12-27T14:53:09.196Z,102151.41
2022-12-27T14:55:56.795Z,102149.59
2022-12-27T14:58:47.460Z,102166.53
2022-12-27T15:01:26.814Z,102160.31
2022-12-27T15:04:05.053Z,102156.78
2022-12-27T15:06:51.481Z,102157.66
2022-12-27T15:09:30.658Z,102151.53
2022-12-27T15:12:10.106Z,102156.00
2022-12-27T15:14:53.954Z,102153.34
2022-12-27T15:17:32.727Z,102156.97
2022-12-27T15:20:24.815Z,102146.47
2022-12-27T15:23:05.184Z,102137.69
2022-12-27T15:25:48.290Z,102136.88
2022-12-27T15:28:26.427Z,102139.59
2022-12-27T15:31:00.144Z,102141.31
2022-12-27T15:33:37.558Z,102133.38
2022-12-27T15:36:10.792Z,102129.88
2022-12-27T15:38:51.204Z,102124.53
2022-12-27T15:41:32.535Z,102126.31
2022-12-27T15:44:26.132Z,102115.59
2022-12-27T15:47:24.601Z,102121.06
2022-12-27T15:50:13.504Z,102122.00
2022-12-27T15:53:00.607Z,102113.09
2022-12-27T15:55:47.792Z,102119.34
2022-12-27T15:58:17.988Z,102119.34
2022-12-27T16:01:07.647Z,102123.81
2022-12-27T16:03:38.490Z,102115.91
2022-12-27T16:06:07.954Z,102120.31
2022-12-27T16:08:40.707Z,102131.72
2022-12-27T16:11:11.673Z,102115.75
2022-12-27T16:13:50.355Z,102119.38
2022-12-27T16:16:57.640Z,102119.38
2022-12-27T16:19:48.651Z,102107.78
2022-12-27T16:22:25.603Z,102102.56
2022-12-27T16:24:53.442Z,102100.72
2022-12-27T16:27:28.493Z,102097.94
2022-12-27T16:29:56.863Z,102092.59
2022-12-27T16:32:26.347Z,102090.81
2022-12-27T16:35:09.791Z,102091.72
2022-12-27T16:37:45.156Z,102092.53
2022-12-27T16:40:39.765Z,102093.38
2022-12-27T16:43:50.256Z,102097.97
2022-12-27T16:46:42.420Z,102105.91
2022-12-27T16:49:33.396Z,102108.56
2022-12-27T16:52:20.739Z,102096.97
2022-12-27T16:54:55.590Z,102100.56
2022-12-27T16:57:35.194Z,102103.25
2022-12-27T17:00:06.524Z,102105.03
2022-12-27T17:02:41.879Z,102098.84
2022-12-27T17:05:58.675Z,102092.84
2022-12-27T17:08:32.932Z,102098.09
2022-12-27T17:11:23.742Z,102097.28
2022-12-27T17:13:55.669Z,102092.03
2022-12-27T17:16:26.360Z,102097.44
2022-12-27T17:18:57.940Z,102097.41
2022-12-27T17:21:30.736Z,102093.06
2022-12-27T17:24:02.610Z,102097.50
2022-12-27T17:26:55.507Z,102094.75
2022-12-27T17:29:31.756Z,102090.38
2022-12-27T17:32:06.733Z,102089.34
2022-12-27T17:34:47.142Z,102085.78
2022-12-27T17:37:20.150Z,102077.84
2022-12-27T17:40:03.303Z,102083.97
2022-12-27T17:42:53.895Z,102078.69
2022-12-27T17:45:34.019Z,102079.63
2022-12-27T17:48:13.128Z,102080.44
2022-12-27T17:50:44.728Z,102085.72
2022-12-27T17:53:39.201Z,102075.94
2022-12-27T17:56:35.848Z,102071.47
2022-12-27T17:59:09.618Z,102066.09
2022-12-27T18:01:43.044Z,102064.38
2022-12-27T18:04:20.880Z,102070.47
2022-12-27T18:06:48.856Z,102060.66
2022-12-27T18:09:37.393Z,102057.13
2022-12-27T18:12:13.222Z,102057.88
2022-12-27T18:14:41.242Z,102056.97
2022-12-27T18:17:26.873Z,102062.25
2022-12-27T18:19:56.573Z,102055.97
2022-12-27T18:22:24.422Z,102066.44
2022-12-27T18:24:52.216Z,102058.41
2022-12-27T18:27:25.355Z,102056.66
2022-12-27T18:29:53.035Z,102047.66
2022-12-27T18:32:21.213Z,102038.56
2022-12-27T18:34:53.003Z,102039.44
2022-12-27T18:37:23.388Z,102032.34
2022-12-27T18:39:53.936Z,102031.34
2022-12-27T18:42:30.897Z,102038.44
2022-12-27T18:45:02.941Z,102029.44
2022-12-27T18:47:30.873Z,102027.66
2022-12-27T18:50:00.633Z,102038.22
2022-12-27T18:52:32.733Z,102026.72
2022-12-27T18:55:13.825Z,102022.16
2022-12-27T18:57:42.986Z,102025.63
2022-12-27T19:00:17.872Z,102024.69
2022-12-27T19:02:46.409Z,102020.22
2022-12-27T19:05:26.901Z,102024.63
2022-12-27T19:08:00.593Z,102022.81
2022-12-27T19:10:30.339Z,102016.56
2022-12-27T19:12:59.565Z,102020.94
2022-12-27T19:15:29.713Z,102019.22
2022-12-27T19:18:00.472Z,102020.06
2022-12-27T19:20:30.493Z,102013.91
2022-12-27T19:23:01.849Z,102005.00
2022-12-27T19:25:31.983Z,102006.72
2022-12-27T19:28:06.559Z,102011.06
2022-12-27T19:30:37.243Z,101996.88
2022-12-27T19:33:09.709Z,101984.38
2022-12-27T19:35:37.458Z,101993.09
2022-12-27T19:38:06.052Z,101992.22
2022-12-27T19:40:34.000Z,101994.84
2022-12-27T19:43:01.721Z,101985.03
2022-12-27T19:45:30.879Z,101984.06
2022-12-27T19:47:58.757Z,101973.31
2022-12-27T19:50:31.460Z,101979.75
2022-12-27T19:52:59.796Z,101970.03
2022-12-27T19:55:28.465Z,101971.78
2022-12-27T19:57:56.176Z,101975.25
2022-12-27T20:00:24.669Z,101968.09
2022-12-27T20:02:54.218Z,101970.69
2022-12-27T20:06:12.443Z,101967.19
2022-12-27T20:08:25.903Z,101962.69
2022-12-27T20:10:53.992Z,101957.28
2022-12-27T20:13:22.244Z,101954.63
2022-12-27T20:15:50.762Z,101951.03
2022-12-27T20:18:20.237Z,101950.09
2022-12-27T20:20:48.418Z,101946.44
2022-12-27T20:23:16.852Z,101939.34
2022-12-27T20:25:46.528Z,101938.47
2022-12-27T20:28:15.396Z,101927.88
2022-12-27T20:30:44.917Z,101944.78
2022-12-27T20:33:13.110Z,101933.28
2022-12-27T20:35:42.357Z,101934.91
2022-12-27T20:38:11.691Z,101925.94
2022-12-27T20:40:40.562Z,101936.53
2022-12-27T20:43:08.289Z,101918.81
2022-12-27T20:45:36.856Z,101917.84
2022-12-27T20:48:09.280Z,101911.59
2022-12-27T20:50:37.182Z,101900.00
2022-12-27T20:53:06.461Z,101900.06
2022-12-27T20:55:34.741Z,101899.06
2022-12-27T20:58:02.792Z,101893.69
2022-12-27T21:00:30.454Z,101905.13
2022-12-27T21:02:58.399Z,101905.13
2022-12-27T21:05:26.215Z,101897.06
2022-12-27T21:07:53.938Z,101893.44
2022-12-27T21:10:23.263Z,101893.31
2022-12-27T21:12:51.238Z,101892.44
2022-12-27T21:15:19.165Z,101884.47
2022-12-27T21:17:47.251Z,101885.28
2022-12-27T21:20:15.066Z,101879.16
2022-12-27T21:22:42.813Z,101880.88
2022-12-27T21:25:10.877Z,101881.78
2022-12-27T21:27:39.919Z,101888.78
2022-12-27T21:30:08.866Z,101883.44
2022-12-27T21:32:36.614Z,101876.31
2022-12-27T21:35:04.344Z,101878.16
2022-12-27T21:37:32.016Z,101866.69
2022-12-27T21:39:59.813Z,101865.91
2022-12-27T21:42:27.467Z,101859.75
2022-12-27T21:44:56.521Z,101858.84
2022-12-27T21:47:26.008Z,101858.84
2022-12-27T21:49:53.638Z,101851.81
2022-12-27T21:52:21.301Z,101849.19
2022-12-27T21:54:49.045Z,101842.94
2022-12-27T21:57:16.735Z,101843.84
2022-12-27T21:59:44.382Z,101839.41
2022-12-27T22:02:13.619Z,101842.94
2022-12-27T22:04:41.411Z,101841.25
2022-12-27T22:07:09.131Z,101832.38
2022-12-27T22:09:37.022Z,101828.84
2022-12-27T22:12:04.965Z,101820.94
2022-12-27T22:14:36.890Z,101823.59
2022-12-27T22:17:04.943Z,101828.00
2022-12-27T22:19:34.035Z,101823.59
2022-12-27T22:22:01.762Z,101806.75
2022-12-27T22:24:29.468Z,101809.38
2022-12-27T22:26:57.178Z,101809.41
2022-12-27T22:29:24.979Z,101797.84
2022-12-27T22:31:52.706Z,101795.28
2022-12-27T22:34:20.404Z,101789.09
2022-12-27T22:36:53.068Z,101782.03
2022-12-27T22:39:20.835Z,101776.72
2022-12-27T22:41:48.516Z,101765.25
2022-12-27T22:44:16.241Z,101751.09
2022-12-27T22:47:15.707Z,101741.38
2022-12-27T22:49:31.841Z,101731.56
2022-12-27T22:52:00.836Z,101739.53
2022-12-27T22:55:05.879Z,101740.44
2022-12-27T22:57:16.176Z,101732.47
2022-12-27T22:59:44.250Z,101729.78
2022-12-27T23:02:12.093Z,101726.19
2022-12-27T23:04:40.019Z,101712.06
2022-12-27T23:07:09.143Z,101712.94
2022-12-27T23:09:42.905Z,101702.31
2022-12-27T23:12:11.301Z,101692.56
2022-12-27T23:14:39.100Z,101692.56
2022-12-27T23:17:06.842Z,101685.53
2022-12-27T23:19:34.518Z,101678.47
2022-12-27T23:22:02.144Z,101677.56
2022-12-27T23:24:31.189Z,101672.31
2022-12-27T23:26:58.833Z,101668.78
2022-12-27T23:29:26.591Z,101660.84
2022-12-27T23:31:55.685Z,101652.00
2022-12-27T23:34:28.586Z,101639.59
2022-12-27T23:36:57.093Z,101644.09
2022-12-27T23:39:24.912Z,101632.66
2022-12-27T23:41:53.950Z,101626.41
2022-12-27T23:44:26.473Z,101618.50
2022-12-27T23:47:02.525Z,101618.66
2022-12-27T23:49:30.832Z,101608.03
2022-12-27T23:51:58.609Z,101615.13
2022-12-27T23:54:26.292Z,101608.94
2022-12-27T23:56:55.348Z,101597.50
2022-12-27T23:59:23.026Z,101590.50
